sensor_id;sensor_type;location;lat;lon;timestamp;pressure;altitude;pressure_sealevel;temperature;humidity
11523;BME280;70090;43.208;27.904;2024-01-15T00:01:13;100467.09;;;3.54;70.36
11523;BME280;70090;43.208;27.904;2024-01-15T00:03:40;100471.69;;;3.62;69.24
11523;BME280;70090;43.208;27.904;2024-01-15T00:06:08;100472.13;;;3.64;69.44
11523;BME280;70090;43.208;27.904;2024-01-15T00:08:35;100474.19;;;3.67;68.69
11523;BME280;70090;43.208;27.904;2024-01-15T00:11:02;100467.03;;;3.62;68.22
11523;BME280;70090;43.208;27.904;2024-01-15T00:13:29;100462.09;;;3.56;69.71
11523;BME280;70090;43.208;27.904;2024-01-15T00:15:56;100457.41;;;3.44;71.44
11523;BME280;70090;43.208;27.904;2024-01-15T00:18:23;100458.09;;;3.33;73.90
11523;BME280;70090;43.208;27.904;2024-01-15T00:20:50;100458.97;;;3.16;76.62
11523;BME280;70090;43.208;27.904;2024-01-15T00:23:19;100448.66;;;3.01;79.01
11523;BME280;70090;43.208;27.904;2024-01-15T00:25:46;100453.81;;;2.94;82.31
11523;BME280;70090;43.208;27.904;2024-01-15T00:28:13;100450.66;;;2.84;86.52
11523;BME280;70090;43.208;27.904;2024-01-15T00:30:40;100454.22;;;2.76;89.23
11523;BME280;70090;43.208;27.904;2024-01-15T00:33:07;100461.13;;;2.65;94.31
11523;BME280;70090;43.208;27.904;2024-01-15T00:35:34;100452.38;;;2.51;98.04
11523;BME280;70090;43.208;27.904;2024-01-15T00:38:01;100454.78;;;2.44;99.64
11523;BME280;70090;43.208;27.904;2024-01-15T00:40:29;100452.41;;;2.34;100.00
11523;BME280;70090;43.208;27.904;2024-01-15T00:42:56;100450.50;;;2.18;99.94
11523;BME280;70090;43.208;27.904;2024-01-15T00:45:24;100455.63;;;2.02;96.93
11523;BME280;70090;43.208;27.904;2024-01-15T00:47:51;100465.03;;;1.96;94.34
11523;BME280;70090;43.208;27.904;2024-01-15T00:50:18;100466.66;;;1.89;92.89
11523;BME280;70090;43.208;27.904;2024-01-15T00:52:45;100463.47;;;1.87;91.94
11523;BME280;70090;43.208;27.904;2024-01-15T00:55:12;100462.19;;;1.93;93.24
11523;BME280;70090;43.208;27.904;2024-01-15T00:57:41;100460.44;;;1.88;96.99
11523;BME280;70090;43.208;27.904;2024-01-15T01:00:08;100464.72;;;1.98;99.33
11523;BME280;70090;43.208;27.904;2024-01-15T01:02:36;100460.88;;;2.07;100.00
11523;BME280;70090;43.208;27.904;2024-01-15T01:05:03;100463.16;;;2.14;100.00
11523;BME280;70090;43.208;27.904;2024-01-15T01:07:31;100457.38;;;2.15;100.00
11523;BME280;70090;43.208;27.904;2024-01-15T01:09:58;100453.06;;;2.14;100.00
11523;BME280;70090;43.208;27.904;2024-01-15T01:12:25;100460.75;;;2.12;100.00
11523;BME280;70090;43.208;27.904;2024-01-15T01:14:53;100451.16;;;2.15;100.00
11523;BME280;70090;43.208;27.904;2024-01-15T01:17:20;100447.16;;;2.12;100.00
11523;BME280;70090;43.208;27.904;2024-01-15T01:19:47;100454.81;;;2.19;100.00
11523;BME280;70090;43.208;27.904;2024-01-15T01:22:14;100449.41;;;2.19;100.00
11523;BME280;70090;43.208;27.904;2024-01-15T01:24:41;100453.88;;;2.23;100.00
11523;BME280;70090;43.208;27.904;2024-01-15T01:27:08;100449.25;;;2.24;100.00
11523;BME280;70090;43.208;27.904;2024-01-15T01:29:35;100447.31;;;2.24;100.00
11523;BME280;70090;43.208;27.904;2024-01-15T01:32:04;100454.31;;;2.25;100.00
11523;BME280;70090;43.208;27.904;2024-01-15T01:34:33;100451.47;;;2.13;100.00
11523;BME280;70090;43.208;27.904;2024-01-15T01:37:06;100457.22;;;2.03;100.00
11523;BME280;70090;43.208;27.904;2024-01-15T01:39:34;100454.50;;;2.03;100.00
11523;BME280;70090;43.208;27.904;2024-01-15T01:42:01;100453.56;;;1.82;100.00
11523;BME280;70090;43.208;27.904;2024-01-15T01:44:28;100447.81;;;1.92;100.00
11523;BME280;70090;43.208;27.904;2024-01-15T01:46:55;100452.28;;;1.97;100.00
11523;BME280;70090;43.208;27.904;2024-01-15T01:49:25;100451.03;;;2.03;100.00
11523;BME280;70090;43.208;27.904;2024-01-15T01:51:53;100451.03;;;2.03;100.00
11523;BME280;70090;43.208;27.904;2024-01-15T01:54:20;100448.78;;;2.05;100.00
11523;BME280;70090;43.208;27.904;2024-01-15T01:56:48;100445.88;;;2.10;100.00
11523;BME280;70090;43.208;27.904;2024-01-15T01:59:16;100443.50;;;2.08;100.00
11523;BME280;70090;43.208;27.904;2024-01-15T02:01:44;100452.13;;;2.10;100.00
11523;BME280;70090;43.208;27.904;2024-01-15T02:04:11;100429.75;;;2.30;100.00
11523;BME280;70090;43.208;27.904;2024-01-15T02:06:40;100437.03;;;2.55;100.00
11523;BME280;70090;43.208;27.904;2024-01-15T02:09:07;100432.28;;;2.81;100.00
11523;BME280;70090;43.208;27.904;2024-01-15T02:11:35;100433.25;;;2.85;100.00
11523;BME280;70090;43.208;27.904;2024-01-15T02:14:03;100438.56;;;2.73;100.00
11523;BME280;70090;43.208;27.904;2024-01-15T02:16:30;100433.47;;;2.63;100.00
11523;BME280;70090;43.208;27.904;2024-01-15T02:18:57;100423.44;;;2.55;100.00
11523;BME280;70090;43.208;27.904;2024-01-15T02:21:24;100425.84;;;2.48;100.00
11523;BME280;70090;43.208;27.904;2024-01-15T02:23:55;100422.53;;;2.34;100.00
11523;BME280;70090;43.208;27.904;2024-01-15T02:26:23;100414.72;;;2.24;100.00
11523;BME280;70090;43.208;27.904;2024-01-15T02:28:50;100421.63;;;2.13;100.00
11523;BME280;70090;43.208;27.904;2024-01-15T02:31:18;100424.81;;;2.15;100.00
11523;BME280;70090;43.208;27.904;2024-01-15T02:33:45;100423.06;;;2.11;100.00
11523;BME280;70090;43.208;27.904;2024-01-15T02:36:13;100427.38;;;2.03;100.00
11523;BME280;70090;43.208;27.904;2024-01-15T02:38:41;100431.22;;;2.02;100.00
11523;BME280;70090;43.208;27.904;2024-01-15T02:41:10;100432.81;;;2.03;100.00
11523;BME280;70090;43.208;27.904;2024-01-15T02:43:39;100421.47;;;2.01;100.00
11523;BME280;70090;43.208;27.904;2024-01-15T02:46:06;100424.34;;;1.96;100.00
11523;BME280;70090;43.208;27.904;2024-01-15T02:48:33;100420.66;;;2.01;100.00
11523;BME280;70090;43.208;27.904;2024-01-15T02:51:01;100427.22;;;2.08;100.00
11523;BME280;70090;43.208;27.904;2024-01-15T02:53:28;100420.34;;;2.11;100.00
11523;BME280;70090;43.208;27.904;2024-01-15T02:55:55;100425.16;;;2.14;100.00
11523;BME280;70090;43.208;27.904;2024-01-15T02:58:23;100424.97;;;2.10;100.00
11523;BME280;70090;43.208;27.904;2024-01-15T03:00:50;100427.84;;;2.05;100.00
11523;BME280;70090;43.208;27.904;2024-01-15T03:03:17;100429.16;;;1.99;100.00
11523;BME280;70090;43.208;27.904;2024-01-15T03:05:44;100424.84;;;1.98;100.00
11523;BME280;70090;43.208;27.904;2024-01-15T03:08:11;100417.47;;;1.99;100.00
11523;BME280;70090;43.208;27.904;2024-01-15T03:10:38;100421.63;;;1.96;100.00
11523;BME280;70090;43.208;27.904;2024-01-15T03:13:05;100425.97;;;1.80;100.00
11523;BME280;70090;43.208;27.904;2024-01-15T03:15:33;100428.66;;;1.80;100.00
11523;BME280;70090;43.208;27.904;2024-01-15T03:18:00;100426.91;;;1.84;100.00
11523;BME280;70090;43.208;27.904;2024-01-15T03:20:27;100427.38;;;1.78;100.00
11523;BME280;70090;43.208;27.904;2024-01-15T03:22:54;100433.78;;;1.73;100.00
11523;BME280;70090;43.208;27.904;2024-01-15T03:25:21;100436.31;;;1.70;100.00
11523;BME280;70090;43.208;27.904;2024-01-15T03:27:49;100435.53;;;1.69;100.00
11523;BME280;70090;43.208;27.904;2024-01-15T03:30:16;100430.91;;;1.61;100.00
11523;BME280;70090;43.208;27.904;2024-01-15T03:32:44;100433.13;;;1.51;100.00
11523;BME280;70090;43.208;27.904;2024-01-15T03:35:13;100432.16;;;1.38;100.00
11523;BME280;70090;43.208;27.904;2024-01-15T03:37:40;100425.91;;;1.29;100.00
11523;BME280;70090;43.208;27.904;2024-01-15T03:40:08;100430.50;;;1.20;100.00
11523;BME280;70090;43.208;27.904;2024-01-15T03:42:35;100431.78;;;1.14;100.00
11523;BME280;70090;43.208;27.904;2024-01-15T03:45:02;100428.09;;;1.10;100.00
11523;BME280;70090;43.208;27.904;2024-01-15T03:47:29;100430.34;;;1.17;100.00
11523;BME280;70090;43.208;27.904;2024-01-15T03:49:58;100428.78;;;1.24;100.00
11523;BME280;70090;43.208;27.904;2024-01-15T03:52:25;100426.91;;;1.33;100.00
11523;BME280;70090;43.208;27.904;2024-01-15T03:54:52;100425.44;;;1.27;100.00
11523;BME280;70090;43.208;27.904;2024-01-15T03:57:19;100418.91;;;1.28;100.00
11523;BME280;70090;43.208;27.904;2024-01-15T03:59:46;100424.78;;;1.22;100.00
11523;BME280;70090;43.208;27.904;2024-01-15T04:02:13;100431.31;;;1.12;100.00
11523;BME280;70090;43.208;27.904;2024-01-15T04:04:41;100438.94;;;1.10;100.00
11523;BME280;70090;43.208;27.904;2024-01-15T04:07:10;100423.31;;;1.07;100.00
11523;BME280;70090;43.208;27.904;2024-01-15T04:09:37;100436.84;;;1.07;100.00
11523;BME280;70090;43.208;27.904;2024-01-15T04:12:05;100429.69;;;1.11;100.00
11523;BME280;70090;43.208;27.904;2024-01-15T04:14:32;100430.66;;;1.15;100.00
11523;BME280;70090;43.208;27.904;2024-01-15T04:16:59;100430.50;;;1.20;100.00
11523;BME280;70090;43.208;27.904;2024-01-15T04:19:26;100431.81;;;1.23;100.00
11523;BME280;70090;43.208;27.904;2024-01-15T04:21:53;100436.41;;;1.22;100.00
11523;BME280;70090;43.208;27.904;2024-01-15T04:24:21;100441.81;;;1.22;100.00
11523;BME280;70090;43.208;27.904;2024-01-15T04:26:48;100436.59;;;1.26;100.00
11523;BME280;70090;43.208;27.904;2024-01-15T04:29:15;100438.34;;;1.30;100.00
11523;BME280;70090;43.208;27.904;2024-01-15T04:31:42;100441.53;;;1.24;100.00
11523;BME280;70090;43.208;27.904;2024-01-15T04:34:09;100448.38;;;1.21;100.00
11523;BME280;70090;43.208;27.904;2024-01-15T04:36:39;100439.28;;;1.17;100.00
11523;BME280;70090;43.208;27.904;2024-01-15T04:39:06;100443.75;;;1.13;100.00
11523;BME280;70090;43.208;27.904;2024-01-15T04:41:35;100443.88;;;1.08;100.00
11523;BME280;70090;43.208;27.904;2024-01-15T04:44:02;100439.72;;;1.02;100.00
11523;BME280;70090;43.208;27.904;2024-01-15T04:46:29;100441.44;;;0.98;100.00
11523;BME280;70090;43.208;27.904;2024-01-15T04:48:56;100438.69;;;0.81;100.00
11523;BME280;70090;43.208;27.904;2024-01-15T04:51:23;100437.72;;;0.77;100.00
11523;BME280;70090;43.208;27.904;2024-01-15T04:53:50;100443.75;;;0.74;100.00
11523;BME280;70090;43.208;27.904;2024-01-15T04:56:17;100447.69;;;0.68;100.00
11523;BME280;70090;43.208;27.904;2024-01-15T04:58:46;100437.66;;;0.60;100.00
11523;BME280;70090;43.208;27.904;2024-01-15T05:01:15;100445.72;;;0.52;100.00
11523;BME280;70090;43.208;27.904;2024-01-15T05:03:42;100441.66;;;0.41;100.00
11523;BME280;70090;43.208;27.904;2024-01-15T05:06:09;100436.22;;;0.32;100.00
11523;BME280;70090;43.208;27.904;2024-01-15T05:08:36;100431.34;;;0.21;100.00
11523;BME280;70090;43.208;27.904;2024-01-15T05:11:03;100438.22;;;0.18;100.00
11523;BME280;70090;43.208;27.904;2024-01-15T05:13:30;100439.00;;;0.19;100.00
11523;BME280;70090;43.208;27.904;2024-01-15T05:15:59;100436.63;;;0.17;100.00
11523;BME280;70090;43.208;27.904;2024-01-15T05:18:26;100439.13;;;0.14;100.00
11523;BME280;70090;43.208;27.904;2024-01-15T05:20:53;100434.34;;;0.11;100.00
11523;BME280;70090;43.208;27.904;2024-01-15T05:23:20;100440.16;;;0.04;100.00
11523;BME280;70090;43.208;27.904;2024-01-15T05:25:47;100448.41;;;-0.01;100.00
11523;BME280;70090;43.208;27.904;2024-01-15T05:28:14;100442.50;;;-0.03;100.00
11523;BME280;70090;43.208;27.904;2024-01-15T05:30:41;100432.28;;;-0.06;100.00
11523;BME280;70090;43.208;27.904;2024-01-15T05:33:10;100433.91;;;-0.04;100.00
11523;BME280;70090;43.208;27.904;2024-01-15T05:35:37;100442.94;;;-0.09;100.00
11523;BME280;70090;43.208;27.904;2024-01-15T05:38:04;100438.75;;;-0.15;100.00
11523;BME280;70090;43.208;27.904;2024-01-15T05:40:31;100446.69;;;-0.18;100.00
11523;BME280;70090;43.208;27.904;2024-01-15T05:42:58;100433.84;;;-0.13;100.00
11523;BME280;70090;43.208;27.904;2024-01-15T05:45:26;100426.72;;;-0.09;100.00
11523;BME280;70090;43.208;27.904;2024-01-15T05:47:53;100432.47;;;-0.02;100.00
11523;BME280;70090;43.208;27.904;2024-01-15T05:50:21;100425.66;;;0.00;100.00
11523;BME280;70090;43.208;27.904;2024-01-15T05:52:48;100435.06;;;0.03;100.00
11523;BME280;70090;43.208;27.904;2024-01-15T05:55:15;100433.53;;;0.10;100.00
11523;BME280;70090;43.208;27.904;2024-01-15T05:57:44;100428.59;;;0.12;100.00
11523;BME280;70090;43.208;27.904;2024-01-15T06:00:12;100434.41;;;0.19;100.00
11523;BME280;70090;43.208;27.904;2024-01-15T06:02:39;100426.94;;;0.25;100.00
11523;BME280;70090;43.208;27.904;2024-01-15T06:05:06;100427.31;;;0.32;100.00
11523;BME280;70090;43.208;27.904;2024-01-15T06:07:35;100430.06;;;0.40;100.00
11523;BME280;70090;43.208;27.904;2024-01-15T06:10:02;100429.63;;;0.47;100.00
11523;BME280;70090;43.208;27.904;2024-01-15T06:12:30;100431.38;;;0.51;100.00
11523;BME280;70090;43.208;27.904;2024-01-15T06:14:57;100425.81;;;0.56;100.00
11523;BME280;70090;43.208;27.904;2024-01-15T06:17:24;100426.50;;;0.62;100.00
11523;BME280;70090;43.208;27.904;2024-01-15T06:19:51;100422.25;;;0.69;100.00
11523;BME280;70090;43.208;27.904;2024-01-15T06:22:18;100422.38;;;0.73;100.00
11523;BME280;70090;43.208;27.904;2024-01-15T06:24:47;100421.16;;;0.79;100.00
11523;BME280;70090;43.208;27.904;2024-01-15T06:27:14;100422.94;;;0.83;100.00
11523;BME280;70090;43.208;27.904;2024-01-15T06:29:45;100427.06;;;0.89;100.00
11523;BME280;70090;43.208;27.904;2024-01-15T06:32:12;100412.75;;;0.97;100.00
11523;BME280;70090;43.208;27.904;2024-01-15T06:34:39;100404.16;;;1.04;100.00
11523;BME280;70090;43.208;27.904;2024-01-15T06:37:08;100406.41;;;1.10;100.00
11523;BME280;70090;43.208;27.904;2024-01-15T06:39:35;100405.81;;;1.13;100.00
11523;BME280;70090;43.208;27.904;2024-01-15T06:42:04;100413.44;;;1.11;100.00
11523;BME280;70090;43.208;27.904;2024-01-15T06:44:31;100390.19;;;1.27;100.00
11523;BME280;70090;43.208;27.904;2024-01-15T06:46:58;100391.31;;;1.18;100.00
11523;BME280;70090;43.208;27.904;2024-01-15T06:49:28;100401.03;;;1.27;100.00
11523;BME280;70090;43.208;27.904;2024-01-15T06:51:55;100392.16;;;1.61;100.00
11523;BME280;70090;43.208;27.904;2024-01-15T06:54:22;100395.66;;;1.78;99.66
11523;BME280;70090;43.208;27.904;2024-01-15T06:56:49;100386.69;;;1.86;99.08
11523;BME280;70090;43.208;27.904;2024-01-15T06:59:18;100380.63;;;1.89;98.11
11523;BME280;70090;43.208;27.904;2024-01-15T07:01:45;100393.41;;;1.97;98.16
11523;BME280;70090;43.208;27.904;2024-01-15T07:04:12;100396.13;;;1.97;97.99
11523;BME280;70090;43.208;27.904;2024-01-15T07:06:39;100391.63;;;2.01;97.80
11523;BME280;70090;43.208;27.904;2024-01-15T07:09:06;100371.50;;;2.02;97.86
11523;BME280;70090;43.208;27.904;2024-01-15T07:11:34;100383.97;;;2.03;97.16
11523;BME280;70090;43.208;27.904;2024-01-15T07:14:01;100388.72;;;2.06;96.87
11523;BME280;70090;43.208;27.904;2024-01-15T07:16:30;100386.97;;;2.10;96.85
11523;BME280;70090;43.208;27.904;2024-01-15T07:18:57;100395.91;;;2.19;97.18
11523;BME280;70090;43.208;27.904;2024-01-15T07:21:24;100396.50;;;2.33;97.59
11523;BME280;70090;43.208;27.904;2024-01-15T07:23:51;100386.84;;;2.52;98.01
11523;BME280;70090;43.208;27.904;2024-01-15T07:26:18;100387.09;;;2.68;97.97
11523;BME280;70090;43.208;27.904;2024-01-15T07:28:45;100384.19;;;2.81;97.83
11523;BME280;70090;43.208;27.904;2024-01-15T07:31:12;100386.38;;;2.88;98.95
11523;BME280;70090;43.208;27.904;2024-01-15T07:33:40;100381.38;;;2.98;99.77
11523;BME280;70090;43.208;27.904;2024-01-15T07:36:08;100382.44;;;3.06;100.00
11523;BME280;70090;43.208;27.904;2024-01-15T07:38:35;100385.44;;;3.13;99.56
11523;BME280;70090;43.208;27.904;2024-01-15T07:41:02;100377.22;;;3.21;99.61
11523;BME280;70090;43.208;27.904;2024-01-15T07:43:29;100379.56;;;3.31;99.11
11523;BME280;70090;43.208;27.904;2024-01-15T07:45:56;100379.81;;;3.38;97.10
11523;BME280;70090;43.208;27.904;2024-01-15T07:48:24;100379.97;;;3.42;96.25
11523;BME280;70090;43.208;27.904;2024-01-15T07:50:52;100379.56;;;3.52;93.30
11523;BME280;70090;43.208;27.904;2024-01-15T07:53:19;100372.47;;;3.59;93.06
11523;BME280;70090;43.208;27.904;2024-01-15T07:55:46;100368.41;;;3.65;92.81
11523;BME280;70090;43.208;27.904;2024-01-15T07:58:13;100361.22;;;3.81;92.60
11523;BME280;70090;43.208;27.904;2024-01-15T08:00:40;100373.19;;;3.89;91.29
11523;BME280;70090;43.208;27.904;2024-01-15T08:03:07;100374.34;;;4.00;90.01
11523;BME280;70090;43.208;27.904;2024-01-15T08:05:34;100368.69;;;4.05;88.88
11523;BME280;70090;43.208;27.904;2024-01-15T08:08:03;100378.69;;;4.13;89.08
11523;BME280;70090;43.208;27.904;2024-01-15T08:10:30;100378.59;;;4.21;87.17
11523;BME280;70090;43.208;27.904;2024-01-15T08:12:57;100373.75;;;4.27;84.89
11523;BME280;70090;43.208;27.904;2024-01-15T08:15:24;100376.25;;;4.32;85.25
11523;BME280;70090;43.208;27.904;2024-01-15T08:17:51;100372.97;;;4.38;84.80
11523;BME280;70090;43.208;27.904;2024-01-15T08:20:18;100379.91;;;4.48;83.77
11523;BME280;70090;43.208;27.904;2024-01-15T08:22:45;100378.56;;;4.54;83.36
11523;BME280;70090;43.208;27.904;2024-01-15T08:25:15;100384.94;;;4.58;82.92
11523;BME280;70090;43.208;27.904;2024-01-15T08:27:42;100379.81;;;4.68;82.44
11523;BME280;70090;43.208;27.904;2024-01-15T08:30:10;100370.84;;;4.79;82.61
11523;BME280;70090;43.208;27.904;2024-01-15T08:32:38;100368.38;;;4.98;82.51
11523;BME280;70090;43.208;27.904;2024-01-15T08:35:07;100361.28;;;5.21;82.14
11523;BME280;70090;43.208;27.904;2024-01-15T08:37:34;100358.75;;;5.40;81.81
11523;BME280;70090;43.208;27.904;2024-01-15T08:40:02;100366.97;;;5.68;80.94
11523;BME280;70090;43.208;27.904;2024-01-15T08:42:31;100384.09;;;5.92;79.55
11523;BME280;70090;43.208;27.904;2024-01-15T08:44:58;100385.13;;;6.15;78.86
11523;BME280;70090;43.208;27.904;2024-01-15T08:47:25;100384.88;;;6.20;76.05
11523;BME280;70090;43.208;27.904;2024-01-15T08:49:52;100368.41;;;6.32;76.79
11523;BME280;70090;43.208;27.904;2024-01-15T08:52:19;100359.16;;;6.52;76.66
11523;BME280;70090;43.208;27.904;2024-01-15T08:54:46;100360.75;;;6.69;77.94
11523;BME280;70090;43.208;27.904;2024-01-15T08:57:13;100357.91;;;6.96;78.33
11523;BME280;70090;43.208;27.904;2024-01-15T08:59:42;100359.84;;;7.11;76.62
11523;BME280;70090;43.208;27.904;2024-01-15T09:02:10;100344.91;;;7.24;75.72
11523;BME280;70090;43.208;27.904;2024-01-15T09:04:37;100347.59;;;7.39;75.39
11523;BME280;70090;43.208;27.904;2024-01-15T09:07:04;100334.56;;;7.52;74.36
11523;BME280;70090;43.208;27.904;2024-01-15T09:09:31;100335.13;;;7.61;73.54
11523;BME280;70090;43.208;27.904;2024-01-15T09:11:59;100323.19;;;7.69;72.64
11523;BME280;70090;43.208;27.904;2024-01-15T09:14:26;100323.31;;;7.76;72.74
11523;BME280;70090;43.208;27.904;2024-01-15T09:16:56;100307.53;;;7.88;72.66
11523;BME280;70090;43.208;27.904;2024-01-15T09:19:23;100304.41;;;8.09;72.13
11523;BME280;70090;43.208;27.904;2024-01-15T09:21:50;100288.03;;;8.35;71.34
11523;BME280;70090;43.208;27.904;2024-01-15T09:24:17;100290.53;;;8.66;70.84
11523;BME280;70090;43.208;27.904;2024-01-15T09:26:44;100283.53;;;8.94;69.78
11523;BME280;70090;43.208;27.904;2024-01-15T09:29:11;100279.66;;;9.25;67.67
11523;BME280;70090;43.208;27.904;2024-01-15T09:31:41;100274.50;;;9.53;65.70
11523;BME280;70090;43.208;27.904;2024-01-15T09:34:09;100278.00;;;9.82;64.64
11523;BME280;70090;43.208;27.904;2024-01-15T09:36:39;100275.91;;;10.05;61.70
11523;BME280;70090;43.208;27.904;2024-01-15T09:39:07;100273.81;;;10.28;58.40
11523;BME280;70090;43.208;27.904;2024-01-15T09:41:36;100267.50;;;10.28;54.69
11523;BME280;70090;43.208;27.904;2024-01-15T09:44:04;100259.69;;;10.33;55.13
11523;BME280;70090;43.208;27.904;2024-01-15T09:46:31;100255.06;;;10.44;54.41
11523;BME280;70090;43.208;27.904;2024-01-15T09:48:59;100251.81;;;10.28;53.91
11523;BME280;70090;43.208;27.904;2024-01-15T09:51:31;100246.47;;;10.49;54.58
11523;BME280;70090;43.208;27.904;2024-01-15T09:53:58;100239.56;;;10.73;53.88
11523;BME280;70090;43.208;27.904;2024-01-15T09:56:25;100243.50;;;10.75;53.17
11523;BME280;70090;43.208;27.904;2024-01-15T09:58:53;100244.81;;;10.92;52.41
11523;BME280;70090;43.208;27.904;2024-01-15T10:01:20;100242.13;;;11.02;51.93
11523;BME280;70090;43.208;27.904;2024-01-15T10:03:47;100234.63;;;11.03;52.21
11523;BME280;70090;43.208;27.904;2024-01-15T10:06:16;100230.38;;;11.16;52.73
11523;BME280;70090;43.208;27.904;2024-01-15T10:08:47;100232.78;;;11.28;51.60
11523;BME280;70090;43.208;27.904;2024-01-15T10:11:15;100228.91;;;11.36;51.54
11523;BME280;70090;43.208;27.904;2024-01-15T10:13:43;100222.63;;;11.35;51.60
11523;BME280;70090;43.208;27.904;2024-01-15T10:16:09;100223.34;;;11.22;52.12
11523;BME280;70090;43.208;27.904;2024-01-15T10:18:36;100216.31;;;10.63;54.45
11523;BME280;70090;43.208;27.904;2024-01-15T10:21:06;100204.19;;;10.71;55.00
11523;BME280;70090;43.208;27.904;2024-01-15T10:23:33;100199.03;;;10.66;55.77
11523;BME280;70090;43.208;27.904;2024-01-15T10:26:01;100199.53;;;10.82;55.76
11523;BME280;70090;43.208;27.904;2024-01-15T10:28:29;100191.53;;;10.63;56.35
11523;BME280;70090;43.208;27.904;2024-01-15T10:30:57;100182.13;;;10.64;57.15
11523;BME280;70090;43.208;27.904;2024-01-15T10:33:25;100180.69;;;10.88;57.13
11523;BME280;70090;43.208;27.904;2024-01-15T10:35:54;100178.88;;;10.52;57.28
11523;BME280;70090;43.208;27.904;2024-01-15T10:38:21;100158.41;;;10.46;59.12
11523;BME280;70090;43.208;27.904;2024-01-15T10:40:51;100154.69;;;10.21;59.92
11523;BME280;70090;43.208;27.904;2024-01-15T10:43:20;100154.47;;;10.43;60.04
11523;BME280;70090;43.208;27.904;2024-01-15T10:45:49;100143.50;;;10.50;60.47
11523;BME280;70090;43.208;27.904;2024-01-15T10:48:18;100126.63;;;10.55;60.95
11523;BME280;70090;43.208;27.904;2024-01-15T10:50:47;100129.84;;;10.68;61.48
11523;BME280;70090;43.208;27.904;2024-01-15T10:53:15;100120.72;;;10.53;62.49
11523;BME280;70090;43.208;27.904;2024-01-15T10:55:43;100116.84;;;10.61;62.78
11523;BME280;70090;43.208;27.904;2024-01-15T10:58:10;100116.97;;;10.82;62.87
11523;BME280;70090;43.208;27.904;2024-01-15T11:00:38;100107.97;;;10.99;62.54
11523;BME280;70090;43.208;27.904;2024-01-15T11:03:06;100099.63;;;10.78;63.49
11523;BME280;70090;43.208;27.904;2024-01-15T11:05:34;100113.78;;;10.80;64.12
11523;BME280;70090;43.208;27.904;2024-01-15T11:08:01;100105.13;;;10.71;64.75
11523;BME280;70090;43.208;27.904;2024-01-15T11:10:38;100109.31;;;10.51;65.67
11523;BME280;70090;43.208;27.904;2024-01-15T11:13:08;100095.53;;;10.44;66.76
11523;BME280;70090;43.208;27.904;2024-01-15T11:16:02;100096.69;;;10.43;66.94
11523;BME280;70090;43.208;27.904;2024-01-15T11:18:31;100097.16;;;10.52;67.47
11523;BME280;70090;43.208;27.904;2024-01-15T11:21:20;100092.53;;;10.74;66.73
11523;BME280;70090;43.208;27.904;2024-01-15T11:23:49;100086.28;;;10.87;67.07
11523;BME280;70090;43.208;27.904;2024-01-15T11:26:30;100089.09;;;10.94;66.70
11523;BME280;70090;43.208;27.904;2024-01-15T11:28:58;100076.09;;;10.95;67.17
11523;BME280;70090;43.208;27.904;2024-01-15T11:31:29;100080.84;;;11.08;66.80
11523;BME280;70090;43.208;27.904;2024-01-15T11:33:56;100069.41;;;10.89;67.21
11523;BME280;70090;43.208;27.904;2024-01-15T11:39:40;100061.09;;;10.71;68.98
11523;BME280;70090;43.208;27.904;2024-01-15T11:42:10;100059.19;;;10.96;68.38
11523;BME280;70090;43.208;27.904;2024-01-15T11:44:37;100045.47;;;11.10;67.55
11523;BME280;70090;43.208;27.904;2024-01-15T11:47:07;100050.97;;;11.10;67.59
11523;BME280;70090;43.208;27.904;2024-01-15T11:52:32;100054.84;;;10.81;66.98
11523;BME280;70090;43.208;27.904;2024-01-15T11:55:11;100051.56;;;10.55;68.56
11523;BME280;70090;43.208;27.904;2024-01-15T11:57:45;100060.88;;;10.36;69.68
11523;BME280;70090;43.208;27.904;2024-01-15T12:00:13;100055.69;;;10.17;70.86
11523;BME280;70090;43.208;27.904;2024-01-15T12:02:43;100042.66;;;10.11;72.17
11523;BME280;70090;43.208;27.904;2024-01-15T12:05:11;100040.75;;;10.15;73.09
11523;BME280;70090;43.208;27.904;2024-01-15T12:07:38;100034.00;;;10.05;73.87
11523;BME280;70090;43.208;27.904;2024-01-15T12:10:09;100035.59;;;10.10;74.64
11523;BME280;70090;43.208;27.904;2024-01-15T12:12:52;100029.72;;;10.11;75.06
11523;BME280;70090;43.208;27.904;2024-01-15T12:15:21;100018.69;;;10.08;75.60
11523;BME280;70090;43.208;27.904;2024-01-15T12:17:50;100046.22;;;10.11;75.88
11523;BME280;70090;43.208;27.904;2024-01-15T12:20:17;100023.44;;;10.07;76.31
11523;BME280;70090;43.208;27.904;2024-01-15T12:22:45;100017.56;;;10.12;76.61
11523;BME280;70090;43.208;27.904;2024-01-15T12:25:12;100012.84;;;10.16;76.54
11523;BME280;70090;43.208;27.904;2024-01-15T12:27:39;100020.00;;;10.28;75.89
11523;BME280;70090;43.208;27.904;2024-01-15T12:30:09;100012.88;;;10.20;76.74
11523;BME280;70090;43.208;27.904;2024-01-15T12:32:37;100008.25;;;10.34;76.58
11523;BME280;70090;43.208;27.904;2024-01-15T12:35:06;100007.47;;;10.41;76.29
11523;BME280;70090;43.208;27.904;2024-01-15T12:37:35;99995.31;;;10.45;76.18
11523;BME280;70090;43.208;27.904;2024-01-15T12:40:03;100003.56;;;10.38;76.84
11523;BME280;70090;43.208;27.904;2024-01-15T12:42:30;100000.38;;;10.29;76.83
11523;BME280;70090;43.208;27.904;2024-01-15T12:44:57;99998.69;;;10.14;78.30
11523;BME280;70090;43.208;27.904;2024-01-15T12:47:24;99990.50;;;10.21;78.40
11523;BME280;70090;43.208;27.904;2024-01-15T12:49:52;99986.13;;;10.13;78.95
11523;BME280;70090;43.208;27.904;2024-01-15T12:52:21;99976.69;;;10.11;79.82